Arapahoe, North Carolina
Current Conditions -  °F | °C
As of 11:54 PM on Monday 22 Dec 2014 (Local Time) from KNKT Reporting Station
Moderate Fog Moderate Fog  
Wind Chill: 41°   Ceiling: 200
Heat Index: 45°   Visibility: 0.25mi
Dew Point: 44°   Wind: 8mph
Humidity: 97%   Direction: 330°NNW
Pressure: 30.03"   Gusts: NA
Location:  35.03°N, 76.83°W
Report Text: KNKT 230454Z AUTO 33007KT 1/4SM FG VV002 07/07 A3003 RMK AO2 SLP165 T00720067 401000067 $
Loading
Personal Weather Stations






























Interactive Weather Map New forecast layout! Learn more

10-Day Weather Forecast

Advertisements
Track Severe Weather on mobile